Time;durP1;ratioP1;P1;durP2;ratioP2;P2;SDS_P1;SDS_P2;PMS_P1;PMS_P2;Temp;Humidity;BMP_temperature;BMP_pressure;BME280_temperature;BME280_humidity;BME280_pressure;Samples;Min_cycle;Max_cycle;Signal;HPM_P1;HPM_P2
2021/08/21 00:01:09;;;;;;;8.40;7.60;;;;;;;17.97;79.80;99145.52;111504;1201;68882;-84
2021/08/21 00:03:37;;;;;;;7.50;6.60;;;;;;;17.89;80.09;99145.76;111524;1200;72705;-86
2021/08/21 00:06:04;;;;;;;9.10;7.10;;;;;;;17.83;80.25;99149.38;111504;1201;60250;-84
2021/08/21 00:08:31;;;;;;;11.70;8.50;;;;;;;17.77;80.46;99149.36;111389;1200;60371;-84
2021/08/21 00:10:58;;;;;;;10.20;8.40;;;;;;;17.70;80.57;99154.88;111386;1200;65175;-84
2021/08/21 00:13:25;;;;;;;9.90;8.80;;;;;;;17.66;80.81;99154.03;111510;1200;60183;-85
2021/08/21 00:15:53;;;;;;;9.50;8.20;;;;;;;17.62;81.09;99150.32;111283;1200;63966;-84
2021/08/21 00:18:20;;;;;;;10.20;8.70;;;;;;;17.59;81.23;99146.83;111496;1193;60192;-84
2021/08/21 00:20:47;;;;;;;10.20;8.70;;;;;;;17.59;81.28;99150.02;111547;1197;60281;-85
2021/08/21 00:23:14;;;;;;;10.00;8.10;;;;;;;17.63;81.40;99148.55;111431;1200;74165;-85
2021/08/21 00:25:40;;;;;;;11.40;9.20;;;;;;;17.65;81.54;99152.84;111511;1200;60192;-85
2021/08/21 00:28:07;;;;;;;11.00;8.30;;;;;;;17.68;81.42;99151.36;111477;1200;64115;-85
2021/08/21 00:30:34;;;;;;;10.10;8.10;;;;;;;17.69;81.44;99152.69;111472;1200;60247;-85
2021/08/21 00:33:00;;;;;;;10.20;8.70;;;;;;;17.70;81.61;99152.04;111489;1200;60185;-85
2021/08/21 00:35:27;;;;;;;10.90;8.70;;;;;;;17.72;81.70;99158.08;111547;1200;65079;-85
2021/08/21 00:37:53;;;;;;;9.20;8.00;;;;;;;17.72;81.68;99159.95;111532;1200;60176;-85
2021/08/21 00:40:20;;;;;;;11.00;8.40;;;;;;;17.70;81.77;99159.92;111523;1200;62587;-85
2021/08/21 00:42:50;;;;;;;11.40;8.50;;;;;;;17.67;81.80;99153.73;111495;1200;60320;-85
2021/08/21 00:45:17;;;;;;;10.10;8.20;;;;;;;17.67;81.99;99152.70;111518;1192;60250;-85
2021/08/21 00:47:44;;;;;;;11.40;8.90;;;;;;;17.67;82.04;99153.76;111363;1200;63639;-85
2021/08/21 00:50:11;;;;;;;9.90;7.90;;;;;;;17.65;82.03;99155.02;111419;1196;60234;-84
2021/08/21 00:52:38;;;;;;;11.30;8.20;;;;;;;17.59;82.10;99152.33;111444;1193;65521;-84
2021/08/21 00:55:06;;;;;;;9.10;8.20;;;;;;;17.54;82.09;99150.06;111468;1200;60269;-84
2021/08/21 00:57:33;;;;;;;9.90;8.00;;;;;;;17.50;82.09;99152.77;111506;1192;60244;-84
2021/08/21 01:00:01;;;;;;;9.10;7.90;;;;;;;17.48;82.13;99151.38;111490;1200;65176;-84
2021/08/21 01:02:30;;;;;;;8.60;7.40;;;;;;;17.44;82.12;99149.77;111495;1192;60221;-84
2021/08/21 01:04:59;;;;;;;9.80;8.10;;;;;;;17.41;82.30;99149.00;111488;1200;63672;-84
2021/08/21 01:07:29;;;;;;;10.60;7.90;;;;;;;17.38;82.46;99149.26;111556;1200;60361;-84
2021/08/21 01:10:00;;;;;;;10.30;8.20;;;;;;;17.34;82.56;99149.45;111499;1195;60212;-84
2021/08/21 01:12:28;;;;;;;8.20;7.40;;;;;;;17.22;82.62;99145.14;111543;1200;63870;-84
2021/08/21 01:14:55;;;;;;;10.20;8.30;;;;;;;17.13;82.76;99141.89;111522;1200;60212;-84
2021/08/21 01:17:21;;;;;;;9.60;8.50;;;;;;;17.07;82.72;99145.33;111483;1200;64003;-85
2021/08/21 01:19:50;;;;;;;10.30;8.70;;;;;;;17.00;82.74;99143.60;111485;1200;61013;-85
2021/08/21 01:22:25;;;;;;;9.80;8.80;;;;;;;16.94;82.95;99143.59;111553;1192;60156;-84
2021/08/21 01:24:56;;;;;;;10.20;8.50;;;;;;;16.89;83.15;99142.82;111583;1200;63567;-84
2021/08/21 01:27:26;;;;;;;10.70;9.20;;;;;;;16.82;83.20;99142.87;111525;1192;61016;-85
2021/08/21 01:29:54;;;;;;;10.10;9.00;;;;;;;16.77;83.38;99141.06;111611;1200;63989;-84
2021/08/21 01:32:22;;;;;;;10.40;8.90;;;;;;;16.74;83.51;99139.15;111421;1196;60187;-85
2021/08/21 01:34:50;;;;;;;10.50;8.70;;;;;;;16.68;83.52;99140.88;111564;1200;60508;-86
2021/08/21 01:37:20;;;;;;;9.20;7.80;;;;;;;16.62;83.58;99141.63;111516;1200;75213;-86
2021/08/21 01:39:49;;;;;;;9.50;7.60;;;;;;;16.56;83.66;99143.06;111555;1200;60257;-84
2021/08/21 01:42:17;;;;;;;9.00;7.80;;;;;;;16.52;83.84;99142.87;111559;1200;63975;-87
2021/08/21 01:44:44;;;;;;;10.20;8.50;;;;;;;16.49;83.88;99144.23;111620;1200;60286;-85
2021/08/21 01:47:13;;;;;;;9.70;8.10;;;;;;;16.47;84.13;99137.62;111756;1200;60268;-84
2021/08/21 01:49:43;;;;;;;10.60;8.00;;;;;;;16.44;84.16;99133.17;111721;1200;73937;-85
2021/08/21 01:52:10;;;;;;;10.30;8.00;;;;;;;16.42;84.12;99132.88;111875;1200;60240;-85
2021/08/21 01:54:37;;;;;;;9.90;8.70;;;;;;;16.39;84.14;99130.42;111829;1200;62560;-86
2021/08/21 01:57:06;;;;;;;10.80;9.30;;;;;;;16.38;84.11;99136.25;111659;1200;59573;-85
2021/08/21 01:59:33;;;;;;;11.70;9.40;;;;;;;16.33;84.13;99137.70;111742;1192;60234;-86
2021/08/21 02:02:01;;;;;;;11.40;9.30;;;;;;;16.31;84.38;99135.99;111594;1200;65225;-84
2021/08/21 02:04:28;;;;;;;10.90;8.00;;;;;;;16.26;84.50;99138.73;111437;1200;60697;-88
2021/08/21 02:06:54;;;;;;;10.30;8.40;;;;;;;16.20;84.55;99143.89;111475;1199;62621;-86
2021/08/21 02:09:24;;;;;;;8.70;7.70;;;;;;;16.16;84.55;99143.71;111556;1200;60364;-86
2021/08/21 02:11:52;;;;;;;9.60;7.20;;;;;;;16.12;84.49;99145.00;111517;1200;60224;-83
2021/08/21 02:14:21;;;;;;;11.30;8.60;;;;;;;16.07;84.44;99141.84;111549;1193;65156;-85
2021/08/21 02:16:51;;;;;;;10.40;8.90;;;;;;;16.00;84.48;99141.16;111531;1200;61012;-85
2021/08/21 02:19:18;;;;;;;10.20;8.50;;;;;;;15.95;84.88;99135.86;111539;1200;62602;-85
2021/08/21 02:21:46;;;;;;;8.50;7.60;;;;;;;15.91;85.09;99134.58;111388;1194;60260;-85
2021/08/21 02:24:15;;;;;;;10.00;8.40;;;;;;;15.89;85.28;99133.11;111544;1193;60208;-85
2021/08/21 02:26:43;;;;;;;10.20;8.10;;;;;;;15.88;85.24;99133.59;111549;1200;64991;-85
2021/08/21 02:29:10;;;;;;;13.90;11.50;;;;;;;15.85;85.29;99135.46;111371;1193;60273;-84
2021/08/21 02:31:37;;;;;;;13.30;9.70;;;;;;;15.85;85.33;99136.73;111519;1200;63869;-84
2021/08/21 02:34:04;;;;;;;9.80;8.60;;;;;;;15.84;85.34;99136.88;111524;1193;60805;-84
2021/08/21 02:36:31;;;;;;;9.90;8.50;;;;;;;15.83;85.23;99143.07;111544;1193;60244;-85
2021/08/21 02:38:59;;;;;;;8.80;8.00;;;;;;;15.78;85.18;99143.45;111359;1196;64859;-85
2021/08/21 02:41:25;;;;;;;9.10;8.00;;;;;;;15.73;85.25;99145.11;111529;1200;60243;-84
2021/08/21 02:43:52;;;;;;;9.70;8.20;;;;;;;15.68;85.25;99143.77;111556;1200;63965;-84
2021/08/21 02:46:19;;;;;;;10.80;8.40;;;;;;;15.61;85.16;99146.15;111519;1200;60284;-84
2021/08/21 02:48:46;;;;;;;10.10;8.70;;;;;;;15.54;85.25;99144.52;111526;1199;60257;-84
2021/08/21 02:51:12;;;;;;;9.90;8.90;;;;;;;15.48;85.24;99143.96;111520;1200;64899;-84
2021/08/21 02:53:39;;;;;;;8.20;7.20;;;;;;;15.43;85.32;99142.14;111506;1200;60156;-83
2021/08/21 02:56:05;;;;;;;10.00;7.50;;;;;;;15.36;85.33;99141.27;111537;1200;64711;-84
2021/08/21 02:58:32;;;;;;;11.80;9.40;;;;;;;15.30;85.37;99143.74;111564;1200;60598;-86
2021/08/21 03:00:59;;;;;;;10.30;9.00;;;;;;;15.26;85.53;99145.80;111591;1195;60266;-84
2021/08/21 03:03:26;;;;;;;12.90;9.60;;;;;;;15.23;85.76;99144.66;111405;1196;63869;-84
2021/08/21 03:05:53;;;;;;;14.20;11.20;;;;;;;15.21;85.82;99148.41;111278;1198;60943;-84
2021/08/21 03:08:19;;;;;;;14.50;11.60;;;;;;;15.20;86.17;99149.94;111472;1200;64077;-84
2021/08/21 03:10:46;;;;;;;13.90;10.60;;;;;;;15.19;86.25;99153.40;111474;1200;60231;-84
2021/08/21 03:13:13;;;;;;;15.00;11.10;;;;;;;15.14;86.32;99156.36;111460;1194;60611;-84
2021/08/21 03:15:40;;;;;;;14.70;11.80;;;;;;;15.12;86.48;99158.80;111479;1194;64872;-84
2021/08/21 03:18:06;;;;;;;14.00;10.50;;;;;;;15.12;86.76;99162.02;111479;1201;60299;-84
2021/08/21 03:20:34;;;;;;;12.50;10.60;;;;;;;15.16;87.01;99162.27;111475;1200;63920;-84
2021/08/21 03:23:01;;;;;;;13.10;10.50;;;;;;;15.21;86.94;99162.95;111494;1192;60269;-84
2021/08/21 03:25:27;;;;;;;14.20;11.10;;;;;;;15.20;86.62;99164.80;111486;1201;60189;-84
2021/08/21 03:27:54;;;;;;;14.50;10.90;;;;;;;15.18;86.50;99164.21;111495;1201;65165;-85
2021/08/21 03:30:21;;;;;;;17.40;10.90;;;;;;;15.16;86.33;99169.98;111502;1193;60707;-85
2021/08/21 03:32:47;;;;;;;14.00;11.30;;;;;;;15.11;86.28;99171.48;111486;1201;62313;-85
2021/08/21 03:35:14;;;;;;;12.60;11.00;;;;;;;15.08;86.39;99173.85;111488;1200;60262;-85
2021/08/21 03:37:41;;;;;;;11.20;9.80;;;;;;;15.05;86.28;99178.21;111471;1193;60215;-85
2021/08/21 03:40:08;;;;;;;14.10;10.00;;;;;;;14.97;86.19;99179.92;111516;1201;63514;-85
2021/08/21 03:42:35;;;;;;;11.50;9.40;;;;;;;14.91;86.30;99180.20;111336;1193;60274;-85
2021/08/21 03:45:02;;;;;;;11.80;9.40;;;;;;;14.85;86.25;99185.22;111518;1200;62771;-85
2021/08/21 03:47:28;;;;;;;11.20;9.90;;;;;;;14.83;86.44;99187.46;111470;1200;60285;-85
2021/08/21 03:49:55;;;;;;;13.00;9.20;;;;;;;14.86;86.45;99184.23;111521;1201;60234;-84
2021/08/21 03:52:22;;;;;;;10.90;9.50;;;;;;;14.85;86.35;99185.02;111460;1200;63952;-84
2021/08/21 03:54:48;;;;;;;10.40;8.80;;;;;;;14.84;86.31;99187.08;111464;1200;60266;-84
2021/08/21 03:57:15;;;;;;;12.30;9.10;;;;;;;14.83;86.30;99189.81;111458;1192;63641;-85
2021/08/21 03:59:41;;;;;;;14.20;11.00;;;;;;;14.83;86.37;99194.81;111517;1193;60154;-84
2021/08/21 04:02:08;;;;;;;16.00;10.90;;;;;;;14.87;86.56;99194.88;111521;1194;60721;-84
2021/08/21 04:04:35;;;;;;;15.60;12.30;;;;;;;14.91;86.41;99197.44;111575;1199;64858;-84
2021/08/21 04:07:02;;;;;;;16.40;13.30;;;;;;;14.94;86.39;99198.96;111587;1199;60272;-84
2021/08/21 04:09:29;;;;;;;14.70;12.10;;;;;;;15.00;86.48;99202.63;111527;1200;62506;-84
2021/08/21 04:11:55;;;;;;;13.50;11.30;;;;;;;15.05;86.40;99205.57;111391;1193;60349;-84
2021/08/21 04:14:22;;;;;;;15.30;12.00;;;;;;;15.09;86.42;99207.55;111544;1200;60186;-85
2021/08/21 04:16:48;;;;;;;15.10;11.60;;;;;;;15.14;86.36;99211.95;111572;1200;66080;-83
2021/08/21 04:19:15;;;;;;;12.70;11.40;;;;;;;15.19;86.31;99213.59;111518;1200;60989;-84
2021/08/21 04:21:41;;;;;;;14.20;9.20;;;;;;;15.23;86.11;99212.53;111573;1200;64723;-84
2021/08/21 04:24:08;;;;;;;10.30;9.10;;;;;;;15.44;85.75;99212.89;111546;1200;60279;-85
2021/08/21 04:26:35;;;;;;;10.00;8.30;;;;;;;15.52;85.59;99213.81;111443;1192;60269;-85
2021/08/21 04:29:02;;;;;;;11.30;9.30;;;;;;;15.55;85.68;99218.30;111566;1199;64850;-84
2021/08/21 04:31:29;;;;;;;10.20;9.00;;;;;;;15.65;85.52;99218.52;111598;1200;60589;-84
2021/08/21 04:33:55;;;;;;;12.20;10.60;;;;;;;15.82;85.22;99220.33;111418;1195;63641;-84
2021/08/21 04:36:22;;;;;;;11.80;10.50;;;;;;;15.92;85.08;99219.67;111599;1199;60270;-84
2021/08/21 04:38:49;;;;;;;12.50;10.60;;;;;;;16.03;85.00;99220.70;111587;1192;60166;-85
2021/08/21 04:41:16;;;;;;;15.90;12.40;;;;;;;16.21;84.90;99223.79;111386;1194;65169;-85
2021/08/21 04:43:43;;;;;;;13.10;10.80;;;;;;;16.42;84.59;99226.45;111581;1200;60170;-85
2021/08/21 04:46:10;;;;;;;11.90;10.30;;;;;;;16.55;84.40;99230.48;111570;1193;63982;-85
2021/08/21 04:48:37;;;;;;;14.10;11.30;;;;;;;16.62;84.33;99233.59;111605;1200;60258;-86
2021/08/21 04:51:03;;;;;;;13.90;12.20;;;;;;;16.69;84.36;99234.45;111632;1193;60308;-85
2021/08/21 04:53:31;;;;;;;14.80;12.20;;;;;;;16.77;84.53;99235.38;111620;1199;66126;-85
2021/08/21 04:55:58;;;;;;;14.30;12.90;;;;;;;16.95;84.44;99237.59;111719;1200;60292;-85
2021/08/21 04:58:25;;;;;;;15.20;12.30;;;;;;;17.02;84.24;99239.40;111806;1200;63913;-86
2021/08/21 05:00:51;;;;;;;13.00;11.60;;;;;;;17.09;84.24;99240.43;111956;1192;60249;-85
2021/08/21 05:03:18;;;;;;;14.10;11.30;;;;;;;17.07;84.58;99242.25;111962;1193;60187;-86
2021/08/21 05:05:45;;;;;;;12.90;11.60;;;;;;;17.03;84.87;99242.38;111830;1193;65192;-84
2021/08/21 05:08:12;;;;;;;15.20;12.50;;;;;;;17.07;85.15;99242.98;111957;1193;60164;-85
2021/08/21 05:10:38;;;;;;;15.10;12.20;;;;;;;17.09;85.40;99246.47;111860;1200;64695;-87
2021/08/21 05:13:05;;;;;;;16.00;13.10;;;;;;;17.13;85.60;99245.13;111646;1192;60280;-85
2021/08/21 05:15:34;;;;;;;15.10;13.60;;;;;;;17.17;85.84;99245.70;111557;1193;60202;-85
2021/08/21 05:18:03;;;;;;;18.80;14.10;;;;;;;17.23;86.00;99246.56;111524;1192;65189;-87
2021/08/21 05:20:40;;;;;;;16.20;13.60;;;;;;;17.32;86.07;99250.02;111550;1200;61407;-86
2021/08/21 05:23:14;;;;;;;18.80;14.40;;;;;;;17.42;86.26;99253.29;111594;1200;63683;-84
2021/08/21 05:25:45;;;;;;;15.60;13.90;;;;;;;17.49;86.33;99251.38;111515;1196;60270;-84
2021/08/21 05:28:17;;;;;;;15.50;13.80;;;;;;;17.56;86.29;99257.05;111593;1200;60263;-84
2021/08/21 05:30:44;;;;;;;16.40;14.60;;;;;;;17.62;86.28;99258.80;111515;1197;63514;-86
2021/08/21 05:33:14;;;;;;;16.00;14.30;;;;;;;17.66;86.29;99262.59;111563;1192;60259;-86
2021/08/21 05:35:41;;;;;;;15.70;14.10;;;;;;;17.70;86.36;99263.44;111602;1200;63642;-88
2021/08/21 05:38:10;;;;;;;14.80;13.20;;;;;;;17.76;86.49;99267.52;111511;1199;60211;-85
2021/08/21 05:40:37;;;;;;;15.80;12.50;;;;;;;17.81;86.48;99269.27;111646;1192;60160;-85
2021/08/21 05:43:04;;;;;;;14.10;12.70;;;;;;;17.84;86.37;99275.13;111554;1200;63734;-86
2021/08/21 05:45:31;;;;;;;14.00;12.40;;;;;;;17.88;86.37;99274.17;111419;1200;60234;-88
2021/08/21 05:47:58;;;;;;;15.30;12.10;;;;;;;17.92;86.42;99275.61;111414;1200;64970;-87
2021/08/21 05:50:24;;;;;;;13.90;12.00;;;;;;;17.96;86.32;99281.54;111408;1193;60329;-87
2021/08/21 05:52:51;;;;;;;14.60;13.20;;;;;;;17.98;86.21;99281.69;111879;1196;60256;-84
2021/08/21 05:55:19;;;;;;;14.40;13.00;;;;;;;18.01;86.13;99277.91;111541;1200;63808;-85
2021/08/21 05:57:46;;;;;;;17.40;15.60;;;;;;;18.02;86.12;99280.86;111546;1200;60196;-86
2021/08/21 06:00:13;;;;;;;16.90;15.30;;;;;;;18.05;86.05;99287.02;111606;1200;72560;-85
2021/08/21 06:02:41;;;;;;;15.70;14.10;;;;;;;18.04;85.95;99288.58;111534;1193;60279;-86
2021/08/21 06:05:11;;;;;;;14.90;13.30;;;;;;;18.01;86.01;99285.96;111564;1193;60247;-84
2021/08/21 06:07:39;;;;;;;15.20;13.60;;;;;;;18.04;86.14;99289.14;111633;1199;66149;-83
2021/08/21 06:10:07;;;;;;;14.80;13.10;;;;;;;18.08;86.19;99286.04;111554;1200;60155;-83
2021/08/21 06:12:34;;;;;;;14.00;12.30;;;;;;;18.14;85.99;99285.42;111380;1200;63683;-84
2021/08/21 06:15:01;;;;;;;13.60;11.90;;;;;;;18.21;85.93;99282.30;111546;1199;60357;-85
2021/08/21 06:17:28;;;;;;;13.60;12.20;;;;;;;18.30;85.72;99285.94;111548;1200;60224;-85
2021/08/21 06:19:56;;;;;;;16.60;13.50;;;;;;;18.37;85.57;99288.51;111574;1199;64429;-85
2021/08/21 06:22:24;;;;;;;16.00;12.70;;;;;;;18.47;85.45;99287.60;111598;1193;60270;-85
2021/08/21 06:24:52;;;;;;;13.80;12.40;;;;;;;18.60;85.35;99287.74;111597;1199;63994;-84
2021/08/21 06:27:18;;;;;;;13.80;12.50;;;;;;;18.74;85.05;99285.94;111616;1200;60285;-84
2021/08/21 06:29:45;;;;;;;14.50;12.80;;;;;;;18.88;84.50;99284.20;111616;1200;60257;-84
2021/08/21 06:32:12;;;;;;;14.80;13.20;;;;;;;19.07;84.06;99285.56;111443;1199;65106;-84
2021/08/21 06:34:38;;;;;;;14.40;13.10;;;;;;;19.34;83.75;99288.00;111542;1199;60297;-84
2021/08/21 06:37:05;;;;;;;13.90;12.40;;;;;;;19.63;83.12;99288.19;111305;1200;63625;-84
2021/08/21 06:39:33;;;;;;;14.60;13.20;;;;;;;19.95;82.60;99284.45;111461;1192;60206;-85
2021/08/21 06:42:02;;;;;;;15.60;13.80;;;;;;;20.14;81.88;99283.73;111598;1195;60212;-86
2021/08/21 06:44:29;;;;;;;17.00;14.90;;;;;;;20.34;81.59;99284.46;111594;1200;65830;-87
2021/08/21 06:46:56;;;;;;;16.40;14.50;;;;;;;20.55;81.16;99288.05;111634;1200;60220;-85
2021/08/21 06:49:23;;;;;;;21.10;15.00;;;;;;;20.74;79.92;99287.73;111534;1200;63963;-87
2021/08/21 06:51:50;;;;;;;16.10;14.40;;;;;;;20.92;79.43;99286.17;111578;1200;60407;-86
2021/08/21 06:54:17;;;;;;;15.60;14.10;;;;;;;21.19;79.10;99280.80;111611;1193;60372;-85
2021/08/21 06:56:43;;;;;;;17.00;12.80;;;;;;;21.45;78.39;99279.66;111551;1200;64918;-84
2021/08/21 06:59:10;;;;;;;13.50;12.20;;;;;;;21.62;77.41;99281.87;111394;1200;60175;-86
2021/08/21 07:01:37;;;;;;;14.00;12.40;;;;;;;21.64;77.19;99282.29;111538;1200;63642;-86
2021/08/21 07:04:04;;;;;;;13.40;12.10;;;;;;;21.70;76.98;99284.02;111548;1200;60262;-86
2021/08/21 07:06:31;;;;;;;13.50;12.10;;;;;;;21.91;76.65;99285.86;111567;1200;60298;-86
2021/08/21 07:08:58;;;;;;;12.60;10.60;;;;;;;22.10;75.89;99288.49;111566;1200;65262;-87
2021/08/21 07:11:24;;;;;;;18.10;12.30;;;;;;;22.21;75.23;99288.90;111596;1200;60366;-85
2021/08/21 07:13:51;;;;;;;13.10;10.90;;;;;;;22.31;74.88;99289.66;111538;1200;63883;-85
2021/08/21 07:16:18;;;;;;;13.70;11.20;;;;;;;22.32;74.52;99291.89;111559;1193;60337;-85
2021/08/21 07:18:45;;;;;;;12.70;11.10;;;;;;;22.29;74.59;99294.23;111573;1193;60259;-85
2021/08/21 07:21:12;;;;;;;12.70;11.00;;;;;;;22.31;74.60;99296.00;111580;1200;63675;-87
2021/08/21 07:23:39;;;;;;;13.80;12.50;;;;;;;22.35;74.37;99296.61;111555;1200;60267;-86
2021/08/21 07:26:06;;;;;;;14.30;12.90;;;;;;;22.38;74.10;99296.16;111535;1200;64001;-86
2021/08/21 07:28:33;;;;;;;13.80;12.30;;;;;;;22.31;73.54;99299.26;111529;1193;60372;-87
2021/08/21 07:31:01;;;;;;;13.40;11.70;;;;;;;22.19;73.62;99300.20;111556;1200;60271;-87
2021/08/21 07:33:28;;;;;;;13.10;11.20;;;;;;;22.21;73.66;99301.42;111537;1192;63615;-85
2021/08/21 07:35:56;;;;;;;13.00;11.70;;;;;;;22.31;73.49;99302.89;111519;1200;60261;-85
2021/08/21 07:38:22;;;;;;;11.90;10.70;;;;;;;22.41;72.95;99302.48;111593;1200;62746;-86
2021/08/21 07:40:51;;;;;;;13.10;10.90;;;;;;;22.53;73.05;99301.27;111355;1201;60320;-85
2021/08/21 07:43:18;;;;;;;10.60;9.60;;;;;;;22.72;72.74;99305.86;111587;1193;60187;-85
2021/08/21 07:45:46;;;;;;;10.70;9.30;;;;;;;23.01;72.34;99306.61;111576;1200;63857;-85
2021/08/21 07:48:14;;;;;;;9.90;8.80;;;;;;;23.26;71.76;99305.67;111555;1192;60871;-85
2021/08/21 07:50:42;;;;;;;10.70;9.50;;;;;;;23.45;71.01;99298.65;111538;1200;63642;-84
2021/08/21 07:53:09;;;;;;;9.70;8.70;;;;;;;23.47;70.51;99305.34;111582;1192;60570;-85
2021/08/21 07:55:36;;;;;;;9.00;8.10;;;;;;;23.37;70.27;99309.02;111557;1200;60205;-85
2021/08/21 07:58:04;;;;;;;8.40;7.50;;;;;;;23.30;70.17;99313.23;111554;1193;63802;-87
2021/08/21 08:00:32;;;;;;;10.60;8.00;;;;;;;23.27;69.82;99313.76;111576;1200;60246;-84
2021/08/21 08:02:59;;;;;;;7.70;6.90;;;;;;;23.11;69.56;99314.13;111583;1200;63993;-85
2021/08/21 08:05:26;;;;;;;7.10;6.20;;;;;;;22.94;68.87;99316.06;111385;1200;60330;-84
2021/08/21 08:07:53;;;;;;;7.90;7.10;;;;;;;22.98;68.61;99316.92;111571;1195;60372;-85
2021/08/21 08:10:19;;;;;;;9.10;7.00;;;;;;;22.95;67.85;99316.48;111560;1200;65174;-86
2021/08/21 08:12:46;;;;;;;8.80;6.50;;;;;;;22.96;67.74;99319.80;111378;1196;60794;-85
2021/08/21 08:15:13;;;;;;;7.30;6.60;;;;;;;22.95;66.67;99322.23;111566;1200;63943;-85
2021/08/21 08:17:40;;;;;;;6.90;6.20;;;;;;;22.98;66.22;99322.83;111568;1200;60187;-85
2021/08/21 08:20:08;;;;;;;7.10;6.50;;;;;;;23.10;66.34;99321.88;111671;1200;60260;-86
2021/08/21 08:22:35;;;;;;;9.40;8.50;;;;;;;23.26;65.35;99326.77;111539;1200;65204;-85
2021/08/21 08:25:02;;;;;;;8.10;7.40;;;;;;;23.48;65.49;99326.99;111552;1200;60253;-86
2021/08/21 08:27:29;;;;;;;8.30;7.50;;;;;;;23.81;65.64;99322.82;111472;1200;62600;-86
2021/08/21 08:29:56;;;;;;;7.50;6.50;;;;;;;24.12;63.71;99321.31;111379;1201;60184;-85
2021/08/21 08:32:22;;;;;;;7.30;6.70;;;;;;;24.18;59.91;99322.82;111551;1192;60275;-85
2021/08/21 08:34:49;;;;;;;7.70;7.00;;;;;;;24.18;59.27;99321.67;111539;1192;64877;-85
2021/08/21 08:37:16;;;;;;;8.20;7.50;;;;;;;24.32;59.33;99324.90;111539;1200;60253;-86
2021/08/21 08:39:43;;;;;;;7.10;6.40;;;;;;;24.33;58.59;99325.89;111622;1193;62414;-84
2021/08/21 08:42:10;;;;;;;6.80;6.20;;;;;;;24.24;58.81;99328.23;111514;1200;60282;-84
2021/08/21 08:44:43;;;;;;;7.40;6.80;;;;;;;24.49;59.78;99330.66;111380;1200;60225;-89
2021/08/21 08:47:10;;;;;;;7.30;6.20;;;;;;;24.71;58.48;99329.15;111410;1195;66165;-89
2021/08/21 08:49:38;;;;;;;7.60;6.90;;;;;;;24.91;58.42;99327.67;111408;1195;60312;-88
2021/08/21 08:52:07;;;;;;;7.40;6.80;;;;;;;25.08;57.88;99325.61;111334;1196;63996;-89
2021/08/21 08:54:34;;;;;;;7.10;6.50;;;;;;;25.27;58.15;99326.16;111549;1200;60386;-89
2021/08/21 08:57:01;;;;;;;6.80;6.00;;;;;;;25.40;57.57;99327.64;111604;1195;60206;-89
2021/08/21 08:59:29;;;;;;;6.70;6.00;;;;;;;25.19;56.61;99331.11;111651;1200;65169;-89
2021/08/21 09:01:56;;;;;;;6.60;6.00;;;;;;;24.77;56.54;99333.38;111581;1200;60191;-90
2021/08/21 09:04:25;;;;;;;8.20;7.50;;;;;;;24.33;56.89;99335.48;111394;1197;63895;-90
2021/08/21 09:06:54;;;;;;;7.40;6.80;;;;;;;23.83;56.96;99342.33;111487;1196;60317;-89
2021/08/21 09:09:23;;;;;;;10.10;7.80;;;;;;;23.40;57.77;99348.55;111409;1195;60546;-88
2021/08/21 09:11:52;;;;;;;7.70;7.00;;;;;;;23.13;58.39;99348.35;111591;1192;63547;-89
2021/08/21 09:14:29;;;;;;;;;;;;;;;22.94;58.68;99349.57;111485;1194;60147;-88
2021/08/21 09:17:31;;;;;;;7.50;6.80;;;;;;;22.77;59.26;99352.58;111552;1200;62620;-89
2021/08/21 09:20:05;;;;;;;7.50;6.90;;;;;;;22.77;59.73;99349.30;111180;1196;60352;-89
2021/08/21 09:22:32;;;;;;;6.70;6.20;;;;;;;22.78;59.38;99349.42;111359;1199;60453;-89
2021/08/21 09:24:59;;;;;;;7.80;7.10;;;;;;;22.73;59.48;99348.82;111483;1192;65481;-89
2021/08/21 09:27:27;;;;;;;8.20;7.50;;;;;;;22.66;59.15;99351.52;111530;1200;60372;-89
2021/08/21 09:30:13;;;;;;;7.80;6.60;;;;;;;22.58;59.65;99354.91;111440;1197;64091;-88
2021/08/21 09:32:41;;;;;;;7.90;7.20;;;;;;;22.56;60.01;99354.77;111575;1200;60690;-89
2021/08/21 09:35:10;;;;;;;7.20;6.60;;;;;;;22.77;60.92;99352.71;111625;1195;60220;-89
2021/08/21 09:37:51;;;;;;;8.60;7.80;;;;;;;23.11;60.52;99350.60;111543;1202;65306;-90
2021/08/21 09:40:36;;;;;;;7.90;7.20;;;;;;;23.36;59.47;99347.77;111402;1201;60340;-89
2021/08/21 09:43:05;;;;;;;7.70;6.30;;;;;;;23.64;59.92;99345.02;111400;1201;63990;-89
2021/08/21 09:45:36;;;;;;;7.20;6.60;;;;;;;23.89;59.32;99342.48;111489;1195;60351;-90
2021/08/21 09:48:07;;;;;;;6.60;6.10;;;;;;;24.13;59.21;99343.54;111475;1195;60253;-90
2021/08/21 09:50:39;;;;;;;6.30;5.80;;;;;;;24.30;57.66;99343.61;111496;1196;63834;-90
2021/08/21 09:53:08;;;;;;;6.80;6.20;;;;;;;24.42;57.94;99338.45;111447;1196;60423;-88
2021/08/21 09:55:35;;;;;;;6.30;5.60;;;;;;;24.66;58.06;99334.35;111603;1201;62734;-90
2021/08/21 09:58:14;;;;;;;5.60;5.00;;;;;;;24.92;58.09;99329.02;111769;1193;60177;-91
2021/08/21 10:00:43;;;;;;;6.90;6.30;;;;;;;25.17;57.65;99325.40;111528;1193;60245;-89
2021/08/21 10:03:10;;;;;;;6.80;6.20;;;;;;;25.32;57.58;99323.84;111643;1200;65346;-90
2021/08/21 10:05:39;;;;;;;7.10;6.50;;;;;;;25.57;57.54;99322.88;111473;1201;60187;-90
2021/08/21 10:08:08;;;;;;;8.60;6.20;;;;;;;25.73;56.06;99324.98;111516;1196;63994;-89
2021/08/21 10:10:48;;;;;;;;;;;;;;;25.81;55.34;99325.33;111494;1196;60907;-89
2021/08/21 10:13:25;;;;;;;5.50;5.00;;;;;;;25.88;54.77;99320.94;111605;1192;60205;-90
2021/08/21 10:15:52;;;;;;;5.90;5.30;;;;;;;25.96;54.47;99317.46;111639;1197;64981;-90
2021/08/21 10:18:22;;;;;;;6.00;5.50;;;;;;;26.09;54.21;99318.87;111540;1197;61660;-90
2021/08/21 10:20:49;;;;;;;5.70;5.20;;;;;;;26.11;53.43;99318.64;111591;1200;62609;-89
2021/08/21 10:23:23;;;;;;;6.10;5.40;;;;;;;26.17;52.25;99316.19;111600;1202;60270;-90
2021/08/21 10:26:09;;;;;;;6.00;5.50;;;;;;;26.16;52.22;99314.75;111663;1200;60270;-89
2021/08/21 10:28:40;;;;;;;6.30;5.70;;;;;;;26.22;52.05;99311.35;111624;1202;65221;-90
2021/08/21 10:31:08;;;;;;;6.20;5.60;;;;;;;26.36;52.09;99311.09;111710;1200;60657;-90
2021/08/21 10:33:57;;;;;;;6.10;5.50;;;;;;;26.48;52.25;99312.39;111590;1201;64388;-90
2021/08/21 10:36:52;;;;;;;5.80;5.30;;;;;;;26.40;51.80;99311.98;111543;1200;60289;-89
2021/08/21 10:39:21;;;;;;;5.70;5.20;;;;;;;26.01;50.86;99315.30;111554;1200;60257;-90
2021/08/21 10:41:50;;;;;;;6.10;5.70;;;;;;;25.61;50.48;99318.16;111489;1201;65230;-89
2021/08/21 10:44:41;;;;;;;6.00;5.50;;;;;;;25.23;51.06;99319.90;111521;1196;60202;-88
2021/08/21 10:47:30;;;;;;;6.00;5.40;;;;;;;24.87;51.36;99322.16;111585;1200;63932;-90
2021/08/21 10:50:20;;;;;;;7.20;6.50;;;;;;;24.53;51.72;99324.54;111614;1193;60276;-90
2021/08/21 10:52:50;;;;;;;;;;;;;;;24.28;52.06;99323.20;111526;1202;60267;-88
2021/08/21 10:55:23;;;;;;;6.40;5.90;;;;;;;24.16;52.26;99320.72;111575;1200;63807;-90
2021/08/21 10:58:16;;;;;;;6.50;5.90;;;;;;;24.20;52.30;99321.87;111584;1200;60164;-90
2021/08/21 11:00:47;;;;;;;6.70;5.80;;;;;;;24.46;52.27;99321.09;111463;1202;63861;-89
2021/08/21 11:03:24;;;;;;;6.30;5.10;;;;;;;24.72;51.95;99317.03;111625;1193;60273;-90
2021/08/21 11:06:07;;;;;;;6.40;5.90;;;;;;;24.78;51.94;99314.17;111423;1194;60160;-88
2021/08/21 11:08:40;;;;;;;6.30;5.80;;;;;;;25.11;52.18;99312.16;111471;1200;65361;-89
2021/08/21 11:11:28;;;;;;;5.70;5.20;;;;;;;25.53;51.55;99310.63;111570;1202;60154;-90
2021/08/21 11:14:08;;;;;;;6.60;5.90;;;;;;;25.78;50.11;99316.05;111539;1200;63663;-90
2021/08/21 11:17:00;;;;;;;7.20;6.50;;;;;;;25.70;49.81;99312.05;111656;1201;60343;-89
2021/08/21 11:19:27;;;;;;;9.40;7.50;;;;;;;25.29;50.22;99309.77;111611;1201;60244;-89
2021/08/21 11:22:17;;;;;;;8.40;7.40;;;;;;;24.91;50.63;99312.58;111709;1202;65150;-90
2021/08/21 11:24:53;;;;;;;7.90;6.80;;;;;;;24.56;50.83;99312.76;112282;1201;60141;-89
2021/08/21 11:27:22;;;;;;;7.90;6.10;;;;;;;24.29;51.35;99312.90;111922;1202;62824;-91